Time;durP1;ratioP1;P1;durP2;ratioP2;P2;SDS_P1;SDS_P2;PMS_P1;PMS_P2;Temp;Humidity;BMP_temperature;BMP_pressure;BME280_temperature;BME280_humidity;BME280_pressure;Samples;Min_cycle;Max_cycle;Signal;HPM_P1;HPM_P2
2022/03/31 00:00:41;;;;;;;9.27;8.77;;;10.50;99.90;;;;;;5012361;28;20215;-65
2022/03/31 00:03:10;;;;;;;8.80;8.23;;;10.50;99.90;;;;;;5014986;28;20622;-63
2022/03/31 00:05:38;;;;;;;7.60;7.17;;;10.70;99.90;;;;;;5018247;28;20221;-64
2022/03/31 00:08:08;;;;;;;7.68;7.18;;;10.70;99.90;;;;;;5018286;28;20233;-62
2022/03/31 00:10:38;;;;;;;10.17;9.57;;;10.90;99.90;;;;;;5010402;28;20292;-63
2022/03/31 00:13:09;;;;;;;9.83;9.30;;;11.00;99.90;;;;;;5010870;28;20640;-63
2022/03/31 00:15:36;;;;;;;8.10;7.60;;;11.00;99.90;;;;;;5007768;28;20225;-62
2022/03/31 00:18:06;;;;;;;8.10;7.70;;;11.10;99.90;;;;;;5010551;28;20231;-63
2022/03/31 00:20:35;;;;;;;8.93;8.43;;;11.10;99.90;;;;;;5005688;28;20201;-63
2022/03/31 00:23:03;;;;;;;8.50;8.00;;;11.20;99.90;;;;;;5010329;28;20229;-63
2022/03/31 00:25:30;;;;;;;7.80;7.40;;;11.10;99.90;;;;;;5009970;28;20229;-63
2022/03/31 00:27:57;;;;;;;8.13;7.63;;;11.10;99.90;;;;;;5008094;28;20216;-63
2022/03/31 00:30:26;;;;;;;8.80;8.20;;;11.10;99.90;;;;;;5010765;28;20311;-63
2022/03/31 00:32:54;;;;;;;9.27;8.77;;;11.10;99.90;;;;;;5010446;28;20205;-64
2022/03/31 00:35:21;;;;;;;8.38;7.97;;;11.00;99.90;;;;;;5014519;28;20268;-63
2022/03/31 00:37:48;;;;;;;10.55;9.95;;;10.90;99.90;;;;;;5015040;28;20243;-64
2022/03/31 00:40:17;;;;;;;9.45;8.88;;;10.80;99.90;;;;;;5009307;28;20284;-63
2022/03/31 00:42:47;;;;;;;10.15;9.55;;;10.80;99.90;;;;;;5016553;28;20297;-63
2022/03/31 00:45:15;;;;;;;9.03;8.53;;;10.70;99.90;;;;;;5017283;28;20225;-63
2022/03/31 00:47:44;;;;;;;11.30;10.60;;;10.80;99.90;;;;;;5016772;28;20292;-63
2022/03/31 00:50:12;;;;;;;9.80;9.30;;;10.80;99.90;;;;;;5019592;28;20637;-63
2022/03/31 00:52:39;;;;;;;11.40;10.70;;;10.70;99.90;;;;;;5016870;28;20237;-64
2022/03/31 00:55:08;;;;;;;9.53;9.03;;;10.60;99.90;;;;;;5009779;28;20321;-64
2022/03/31 00:57:36;;;;;;;9.90;9.30;;;10.60;99.90;;;;;;5006788;28;20209;-64
2022/03/31 01:00:03;;;;;;;10.82;10.18;;;10.70;99.90;;;;;;5009074;28;20236;-64
2022/03/31 01:02:31;;;;;;;11.10;10.40;;;10.90;99.90;;;;;;5008630;28;20887;-64
2022/03/31 01:05:01;;;;;;;11.85;11.15;;;10.90;99.90;;;;;;5009476;28;20232;-64
2022/03/31 01:07:28;;;;;;;9.82;9.23;;;10.80;99.90;;;;;;5009578;28;20245;-64
2022/03/31 01:09:55;;;;;;;10.77;10.17;;;10.80;99.90;;;;;;5012418;28;20221;-62
2022/03/31 01:12:22;;;;;;;10.55;9.93;;;10.80;99.90;;;;;;5014898;28;20198;-65
2022/03/31 01:14:49;;;;;;;9.60;9.00;;;10.70;99.90;;;;;;5017840;28;20285;-63
2022/03/31 01:17:15;;;;;;;9.87;9.37;;;10.80;99.90;;;;;;5014023;28;20288;-63
2022/03/31 01:19:42;;;;;;;9.80;9.20;;;10.80;99.90;;;;;;5010679;28;20292;-62
2022/03/31 01:22:11;;;;;;;10.27;9.67;;;10.80;99.90;;;;;;5009786;28;20344;-62
2022/03/31 01:24:40;;;;;;;9.47;8.97;;;10.80;99.90;;;;;;5009044;28;20217;-62
2022/03/31 01:27:11;;;;;;;10.13;9.52;;;10.80;99.90;;;;;;5011194;28;20312;-63
2022/03/31 01:29:38;;;;;;;11.48;10.77;;;10.80;99.90;;;;;;5012026;28;20200;-64
2022/03/31 01:32:06;;;;;;;10.80;10.20;;;10.60;99.90;;;;;;5010913;28;20232;-64
2022/03/31 01:34:33;;;;;;;10.40;9.80;;;10.50;99.90;;;;;;5011602;28;20225;-62
2022/03/31 01:37:00;;;;;;;10.80;10.20;;;10.30;99.90;;;;;;5011575;28;20233;-63
2022/03/31 01:39:27;;;;;;;10.18;9.57;;;10.30;99.90;;;;;;5011591;28;20378;-64
2022/03/31 01:41:55;;;;;;;9.73;9.13;;;10.30;99.90;;;;;;5011208;28;20273;-64
2022/03/31 01:44:22;;;;;;;9.85;9.25;;;10.30;99.90;;;;;;5011572;28;20225;-62
2022/03/31 01:46:49;;;;;;;10.63;10.02;;;10.30;99.90;;;;;;5014304;28;20271;-63
2022/03/31 01:49:16;;;;;;;9.97;9.40;;;10.30;99.90;;;;;;5016127;28;20205;-64
2022/03/31 01:51:43;;;;;;;11.07;10.37;;;10.30;99.90;;;;;;5014738;28;20201;-63
2022/03/31 01:54:10;;;;;;;10.95;10.27;;;10.30;99.90;;;;;;5022292;28;20228;-63
2022/03/31 01:56:42;;;;;;;11.97;11.27;;;10.20;99.90;;;;;;5018526;28;20232;-65
2022/03/31 01:59:11;;;;;;;10.80;10.20;;;10.10;99.90;;;;;;5015035;28;20219;-65
2022/03/31 02:01:38;;;;;;;10.60;10.00;;;10.00;99.90;;;;;;5011714;28;20292;-63
2022/03/31 02:04:05;;;;;;;9.60;9.10;;;10.00;99.90;;;;;;5014628;28;20225;-63
2022/03/31 02:06:32;;;;;;;8.30;7.90;;;10.10;99.90;;;;;;5014345;28;20614;-63
2022/03/31 02:08:59;;;;;;;9.13;8.52;;;10.30;99.90;;;;;;5017538;28;20209;-63
2022/03/31 02:11:26;;;;;;;8.93;8.23;;;10.60;99.90;;;;;;5018009;28;20205;-63
2022/03/31 02:13:54;;;;;;;8.57;8.07;;;10.50;99.90;;;;;;5013794;28;20259;-62
2022/03/31 02:16:23;;;;;;;10.35;9.65;;;10.60;99.90;;;;;;5015999;28;20205;-63
2022/03/31 02:18:50;;;;;;;9.00;8.50;;;10.60;99.90;;;;;;5012926;28;20236;-64
2022/03/31 02:21:17;;;;;;;10.10;9.50;;;10.60;99.90;;;;;;5015886;28;20300;-64
2022/03/31 02:23:44;;;;;;;8.55;8.05;;;10.60;99.90;;;;;;5016527;28;20221;-64
2022/03/31 02:26:10;;;;;;;8.37;7.90;;;10.50;99.90;;;;;;5014591;28;20201;-63
2022/03/31 02:28:39;;;;;;;8.73;8.23;;;10.50;99.90;;;;;;5013289;28;20244;-63
2022/03/31 02:31:06;;;;;;;8.73;8.23;;;10.60;99.90;;;;;;5014126;28;20662;-64
2022/03/31 02:33:34;;;;;;;8.93;8.43;;;10.60;99.90;;;;;;5012987;28;20233;-64
2022/03/31 02:36:01;;;;;;;8.32;7.82;;;10.70;99.90;;;;;;5021122;28;20316;-62
2022/03/31 02:38:28;;;;;;;8.00;7.60;;;10.70;99.90;;;;;;5021843;28;20205;-63
2022/03/31 02:40:55;;;;;;;9.10;8.60;;;10.70;99.90;;;;;;5020683;28;20198;-62
2022/03/31 02:43:21;;;;;;;8.90;8.40;;;10.70;99.90;;;;;;5021516;28;20228;-63
2022/03/31 02:45:48;;;;;;;8.95;8.45;;;10.70;99.90;;;;;;5021594;28;20719;-63
2022/03/31 02:48:15;;;;;;;8.73;8.23;;;10.90;99.90;;;;;;5025708;28;20193;-65
2022/03/31 02:50:43;;;;;;;8.07;7.67;;;10.80;99.90;;;;;;5019097;28;20212;-63
2022/03/31 02:55:55;;;;;;;8.73;8.23;;;10.90;99.90;;;;;;5013452;28;20223;-64
2022/03/31 02:58:22;;;;;;;10.25;9.65;;;10.70;99.90;;;;;;5013092;28;20209;-64
2022/03/31 03:00:49;;;;;;;10.50;9.90;;;10.60;99.90;;;;;;5012972;28;20213;-64
2022/03/31 03:03:16;;;;;;;10.43;9.83;;;10.50;99.90;;;;;;5012618;28;20240;-62
2022/03/31 03:05:45;;;;;;;10.43;9.82;;;10.50;99.90;;;;;;5012780;28;20253;-62
2022/03/31 03:08:14;;;;;;;10.67;10.07;;;10.50;99.90;;;;;;5013437;28;20660;-64
2022/03/31 03:10:42;;;;;;;10.60;10.00;;;10.30;99.90;;;;;;5013137;28;20790;-64
2022/03/31 03:13:08;;;;;;;11.68;10.98;;;10.30;99.90;;;;;;5013337;28;20612;-63
2022/03/31 03:15:36;;;;;;;11.87;11.17;;;10.20;99.90;;;;;;5013193;28;20287;-63
2022/03/31 03:18:03;;;;;;;11.65;10.88;;;10.10;99.90;;;;;;5013328;28;20655;-65
2022/03/31 03:20:30;;;;;;;11.70;11.00;;;10.00;99.90;;;;;;5014392;28;20300;-63
2022/03/31 03:22:58;;;;;;;10.55;9.95;;;10.00;99.90;;;;;;5016652;28;20961;-65
2022/03/31 03:25:25;;;;;;;10.32;9.73;;;10.00;99.90;;;;;;5013165;28;20313;-64
2022/03/31 03:27:52;;;;;;;10.23;9.63;;;10.10;99.90;;;;;;5012922;28;20292;-63
2022/03/31 03:30:20;;;;;;;9.75;9.15;;;10.10;99.90;;;;;;5013480;28;20206;-65
2022/03/31 03:32:47;;;;;;;11.13;10.48;;;10.20;99.90;;;;;;5014534;28;20243;-65
2022/03/31 03:35:16;;;;;;;11.93;11.20;;;10.30;99.90;;;;;;5013870;28;20229;-64
2022/03/31 03:37:44;;;;;;;11.55;10.95;;;10.20;99.90;;;;;;5013841;28;20672;-64
2022/03/31 03:40:15;;;;;;;11.43;10.73;;;10.20;99.90;;;;;;5011533;28;20205;-64
2022/03/31 03:42:42;;;;;;;11.60;10.90;;;10.10;99.90;;;;;;5011501;28;20232;-62
2022/03/31 03:45:11;;;;;;;12.02;11.32;;;10.10;99.90;;;;;;5017174;28;20723;-64
2022/03/31 03:47:38;;;;;;;12.50;11.70;;;10.10;99.90;;;;;;5023780;28;20213;-65
2022/03/31 03:50:06;;;;;;;12.30;11.57;;;10.00;99.90;;;;;;5012335;28;20212;-63
2022/03/31 03:52:33;;;;;;;12.40;11.70;;;9.90;99.90;;;;;;5012660;28;20614;-63
2022/03/31 03:55:00;;;;;;;14.27;13.38;;;9.90;99.90;;;;;;5040461;22;20540;-67
2022/03/31 03:57:28;;;;;;;12.63;11.83;;;10.00;99.90;;;;;;5041575;28;20300;-67
2022/03/31 03:59:55;;;;;;;14.23;13.32;;;9.80;99.90;;;;;;5033495;28;20634;-65
2022/03/31 04:02:22;;;;;;;12.82;12.02;;;9.80;99.90;;;;;;5032772;28;20201;-66
2022/03/31 04:04:49;;;;;;;13.48;12.57;;;9.60;99.90;;;;;;5032464;28;20943;-67
2022/03/31 04:07:16;;;;;;;13.70;12.70;;;9.70;99.90;;;;;;5033144;28;20201;-67
2022/03/31 04:09:43;;;;;;;13.05;12.25;;;9.60;99.90;;;;;;5031410;28;20247;-66
2022/03/31 04:12:11;;;;;;;11.95;11.18;;;9.60;99.90;;;;;;5032650;28;20733;-68
2022/03/31 04:14:39;;;;;;;13.27;12.37;;;9.50;99.90;;;;;;5031670;28;20351;-66
2022/03/31 04:17:06;;;;;;;12.52;11.73;;;9.60;99.90;;;;;;5032572;28;20915;-67
2022/03/31 04:19:33;;;;;;;13.35;12.55;;;9.50;99.90;;;;;;5034422;28;20200;-68
2022/03/31 04:21:59;;;;;;;12.38;11.57;;;9.50;99.90;;;;;;5035465;28;20558;-67
2022/03/31 04:24:26;;;;;;;13.33;12.53;;;9.50;99.90;;;;;;5033599;28;20771;-66
2022/03/31 04:26:53;;;;;;;12.13;11.40;;;9.50;99.90;;;;;;5033611;28;20287;-67
2022/03/31 04:29:20;;;;;;;11.37;10.67;;;9.40;99.90;;;;;;5034062;28;20208;-67
2022/03/31 04:31:49;;;;;;;11.20;10.50;;;9.50;99.90;;;;;;5032584;28;20296;-67
2022/03/31 04:34:16;;;;;;;12.18;11.43;;;9.60;99.90;;;;;;5032751;28;20205;-66
2022/03/31 04:36:44;;;;;;;11.68;10.98;;;9.60;99.90;;;;;;5033295;28;20204;-66
2022/03/31 04:39:13;;;;;;;12.70;11.90;;;9.60;99.90;;;;;;5029368;28;20201;-67
2022/03/31 04:41:40;;;;;;;12.47;11.67;;;9.60;99.90;;;;;;5031076;28;20677;-67
2022/03/31 04:44:07;;;;;;;12.23;11.53;;;9.50;99.90;;;;;;5031856;28;20340;-68
2022/03/31 04:46:35;;;;;;;11.93;11.23;;;9.40;99.90;;;;;;5031886;28;20304;-66
2022/03/31 04:49:03;;;;;;;11.50;10.80;;;9.50;99.90;;;;;;5031577;28;20710;-68
2022/03/31 04:51:30;;;;;;;9.90;9.30;;;9.50;99.90;;;;;;5031540;28;20686;-67
2022/03/31 04:53:57;;;;;;;10.37;9.70;;;9.50;99.90;;;;;;5032217;28;20224;-67
2022/03/31 04:56:24;;;;;;;9.77;9.07;;;9.60;99.90;;;;;;5032110;28;20240;-67
2022/03/31 04:58:51;;;;;;;10.50;9.80;;;9.70;99.90;;;;;;5030491;28;20200;-66
2022/03/31 05:01:18;;;;;;;10.10;9.50;;;9.70;99.90;;;;;;5030722;28;20295;-66
2022/03/31 05:03:45;;;;;;;9.88;9.27;;;9.80;99.90;;;;;;5031452;28;20224;-68
2022/03/31 05:06:14;;;;;;;8.30;7.80;;;9.80;99.90;;;;;;5024470;28;20228;-68
2022/03/31 05:08:40;;;;;;;8.40;7.90;;;9.90;99.90;;;;;;5022348;28;20197;-68
2022/03/31 05:11:07;;;;;;;8.70;8.20;;;10.00;99.90;;;;;;5018401;28;20209;-68
2022/03/31 05:13:34;;;;;;;9.47;8.97;;;10.10;99.90;;;;;;5017813;28;20284;-68
2022/03/31 05:16:02;;;;;;;9.33;8.80;;;10.10;99.90;;;;;;5029390;28;20233;-69
2022/03/31 05:18:29;;;;;;;8.75;8.25;;;10.00;99.90;;;;;;5022108;28;20324;-67
2022/03/31 05:20:56;;;;;;;9.57;8.97;;;10.00;99.90;;;;;;5025103;28;20205;-68
2022/03/31 05:23:24;;;;;;;9.40;8.83;;;10.00;99.90;;;;;;5031172;28;20332;-67
2022/03/31 05:25:51;;;;;;;9.05;8.55;;;10.00;99.90;;;;;;5031253;28;20605;-66
2022/03/31 05:28:18;;;;;;;9.17;8.63;;;9.90;99.90;;;;;;5030096;28;20638;-68
2022/03/31 05:30:45;;;;;;;8.32;7.82;;;10.00;99.90;;;;;;5029788;28;20858;-68
2022/03/31 05:33:12;;;;;;;8.02;7.53;;;10.00;99.90;;;;;;5028736;28;20199;-69
2022/03/31 05:35:39;;;;;;;8.75;8.25;;;10.00;99.90;;;;;;5030586;28;20287;-66
2022/03/31 05:38:06;;;;;;;7.87;7.37;;;10.10;99.90;;;;;;5031208;28;20308;-66
2022/03/31 05:40:35;;;;;;;8.43;7.93;;;10.20;99.90;;;;;;5022440;28;20208;-67
2022/03/31 05:43:02;;;;;;;8.47;7.97;;;10.20;99.90;;;;;;5030531;28;20725;-65
2022/03/31 05:45:29;;;;;;;8.37;7.87;;;10.20;99.90;;;;;;5030362;28;20224;-68
2022/03/31 05:47:56;;;;;;;9.37;8.77;;;10.20;99.90;;;;;;5029795;28;20678;-68
2022/03/31 05:50:22;;;;;;;9.50;8.90;;;10.40;99.90;;;;;;5033071;28;20741;-68
2022/03/31 05:52:50;;;;;;;9.27;8.67;;;10.20;99.90;;;;;;5031552;28;20255;-66
2022/03/31 05:55:19;;;;;;;9.80;9.20;;;10.20;99.90;;;;;;5030572;28;20270;-68
2022/03/31 05:57:47;;;;;;;8.97;8.47;;;10.30;99.90;;;;;;5025219;28;20201;-68
2022/03/31 06:00:16;;;;;;;9.33;8.73;;;10.30;99.90;;;;;;5031210;28;20299;-69
2022/03/31 06:02:44;;;;;;;9.47;8.87;;;10.30;99.90;;;;;;5030417;28;20200;-67
2022/03/31 06:05:11;;;;;;;9.37;8.77;;;10.40;99.90;;;;;;5025984;28;20702;-69
2022/03/31 06:07:38;;;;;;;10.17;9.57;;;10.50;99.90;;;;;;5020064;28;20201;-68
2022/03/31 06:10:06;;;;;;;9.67;9.07;;;10.30;99.90;;;;;;5036036;28;20205;-70
2022/03/31 06:12:34;;;;;;;10.45;9.75;;;10.20;99.90;;;;;;5031729;28;20279;-69
2022/03/31 06:15:02;;;;;;;10.60;9.90;;;10.20;99.90;;;;;;5020196;28;20664;-67
2022/03/31 06:17:29;;;;;;;10.07;9.48;;;10.10;99.90;;;;;;5017221;28;20205;-69
2022/03/31 06:19:56;;;;;;;10.60;10.00;;;10.10;99.90;;;;;;5019580;28;20292;-68
2022/03/31 06:22:23;;;;;;;10.53;9.83;;;10.00;99.90;;;;;;5018608;28;20205;-66
2022/03/31 06:24:50;;;;;;;9.63;9.13;;;10.00;99.90;;;;;;5021603;28;20747;-68
2022/03/31 06:27:17;;;;;;;10.45;9.85;;;10.00;99.90;;;;;;5022290;28;20288;-66
2022/03/31 06:29:46;;;;;;;10.88;10.18;;;10.00;99.90;;;;;;5019236;28;20640;-67
2022/03/31 06:32:14;;;;;;;10.98;10.27;;;9.90;99.90;;;;;;5022810;28;20543;-67
2022/03/31 06:34:42;;;;;;;11.25;10.55;;;9.90;99.90;;;;;;5034593;28;20285;-67
2022/03/31 06:37:09;;;;;;;12.77;11.97;;;9.80;99.90;;;;;;5032108;28;20716;-68
2022/03/31 06:39:36;;;;;;;11.45;10.75;;;9.60;99.90;;;;;;5026402;28;20201;-67
2022/03/31 06:42:04;;;;;;;11.23;10.53;;;9.60;99.90;;;;;;5033986;28;20230;-68
2022/03/31 06:44:31;;;;;;;10.77;10.07;;;9.50;99.90;;;;;;5033617;28;20235;-67
2022/03/31 06:46:58;;;;;;;11.65;10.95;;;9.50;99.90;;;;;;5034342;28;20207;-67
2022/03/31 06:49:26;;;;;;;10.82;10.13;;;9.50;99.90;;;;;;5033832;28;20230;-66
2022/03/31 06:51:53;;;;;;;11.27;10.60;;;9.50;99.90;;;;;;5033312;28;20208;-67
2022/03/31 06:54:20;;;;;;;9.85;9.25;;;9.50;99.90;;;;;;5031824;28;20197;-67
2022/03/31 06:56:49;;;;;;;10.43;9.83;;;9.50;99.90;;;;;;5032921;28;20667;-68
2022/03/31 06:59:15;;;;;;;10.95;10.25;;;9.60;99.90;;;;;;5033712;28;20204;-69
2022/03/31 07:01:42;;;;;;;9.93;9.33;;;9.60;99.90;;;;;;5033972;28;20295;-66
2022/03/31 07:04:10;;;;;;;9.50;8.90;;;9.60;99.90;;;;;;5035187;28;20311;-67
2022/03/31 07:06:39;;;;;;;10.82;10.13;;;9.70;99.90;;;;;;5034481;28;20232;-68
2022/03/31 07:09:06;;;;;;;9.57;8.98;;;9.60;99.90;;;;;;5034963;28;20232;-68
2022/03/31 07:11:34;;;;;;;8.82;8.32;;;9.70;99.90;;;;;;5034280;28;20227;-69
2022/03/31 07:14:01;;;;;;;8.97;8.37;;;9.70;99.90;;;;;;5046207;28;20227;-67
2022/03/31 07:16:28;;;;;;;8.23;7.72;;;9.70;99.90;;;;;;5037256;28;20311;-69
2022/03/31 07:18:55;;;;;;;8.77;8.18;;;9.80;99.90;;;;;;5049144;28;20199;-68
2022/03/31 07:21:24;;;;;;;8.10;7.60;;;9.80;99.90;;;;;;5048072;28;20274;-69
2022/03/31 07:23:52;;;;;;;7.40;7.00;;;9.80;99.90;;;;;;5034587;28;20228;-69
2022/03/31 07:26:22;;;;;;;7.55;7.15;;;9.90;99.90;;;;;;5031571;28;20228;-68
2022/03/31 07:28:49;;;;;;;7.55;7.10;;;10.00;99.90;;;;;;5033638;28;20205;-68
2022/03/31 07:31:16;;;;;;;7.97;7.47;;;10.00;99.90;;;;;;5031247;28;20200;-69
2022/03/31 07:33:43;;;;;;;6.60;6.20;;;9.90;99.90;;;;;;5033272;28;20287;-68
2022/03/31 07:36:12;;;;;;;5.68;5.38;;;9.90;99.90;;;;;;5032880;28;20645;-68
2022/03/31 07:38:39;;;;;;;5.17;4.90;;;9.80;99.90;;;;;;5032842;28;20201;-69
2022/03/31 07:41:07;;;;;;;4.85;4.63;;;9.80;99.90;;;;;;5032574;28;20204;-69
2022/03/31 07:43:35;;;;;;;5.03;4.72;;;9.80;99.90;;;;;;5031263;28;20228;-66
2022/03/31 07:46:01;;;;;;;4.20;4.00;;;9.70;99.90;;;;;;5033327;28;20263;-69
2022/03/31 07:48:28;;;;;;;4.40;4.18;;;9.70;99.90;;;;;;5033174;28;20204;-69
2022/03/31 07:50:56;;;;;;;4.80;4.50;;;9.70;99.90;;;;;;5032263;28;20267;-67
2022/03/31 07:53:23;;;;;;;4.10;3.90;;;9.70;99.90;;;;;;5033080;28;20635;-67
2022/03/31 07:55:50;;;;;;;4.30;4.10;;;9.70;99.90;;;;;;5032997;28;20709;-69
2022/03/31 07:58:19;;;;;;;3.83;3.63;;;9.70;99.90;;;;;;5034103;28;20228;-68
2022/03/31 08:00:50;;;;;;;3.80;3.60;;;9.60;99.90;;;;;;5034715;28;20247;-69
2022/03/31 08:03:18;;;;;;;3.70;3.50;;;9.60;99.90;;;;;;5033108;28;20223;-69
2022/03/31 08:05:45;;;;;;;3.50;3.30;;;9.60;99.90;;;;;;5032641;28;20283;-67
2022/03/31 08:08:12;;;;;;;3.90;3.70;;;9.60;99.90;;;;;;5033664;28;20232;-66
2022/03/31 08:10:39;;;;;;;4.53;4.25;;;9.50;99.90;;;;;;5032394;28;20210;-67
2022/03/31 08:13:08;;;;;;;4.07;3.88;;;9.40;99.90;;;;;;5043606;28;20200;-67
2022/03/31 08:15:37;;;;;;;3.97;3.77;;;9.40;99.90;;;;;;5033832;28;20224;-69
2022/03/31 08:18:04;;;;;;;4.10;3.90;;;9.40;99.90;;;;;;5032209;28;20211;-67
2022/03/31 08:20:31;;;;;;;3.60;3.40;;;9.40;99.90;;;;;;5031899;28;20212;-67
2022/03/31 08:22:58;;;;;;;3.60;3.40;;;9.30;99.90;;;;;;5032073;28;20200;-66
2022/03/31 08:25:25;;;;;;;3.40;3.30;;;9.40;99.90;;;;;;5031906;28;20240;-68
2022/03/31 08:27:52;;;;;;;4.00;3.80;;;9.40;99.90;;;;;;5032745;28;20578;-68
2022/03/31 08:30:21;;;;;;;3.47;3.28;;;9.30;99.90;;;;;;5032154;28;20215;-68
2022/03/31 08:32:50;;;;;;;3.67;3.47;;;9.30;99.90;;;;;;5032159;28;20209;-69
2022/03/31 08:35:17;;;;;;;3.33;3.13;;;9.30;99.90;;;;;;5032498;28;20313;-68
2022/03/31 08:37:45;;;;;;;3.13;3.03;;;9.30;99.90;;;;;;5033182;28;20200;-68
2022/03/31 08:40:13;;;;;;;2.90;2.80;;;9.30;99.90;;;;;;5032699;28;20288;-67
2022/03/31 08:42:40;;;;;;;2.80;2.70;;;9.30;99.90;;;;;;5032038;28;20300;-67
2022/03/31 08:45:12;;;;;;;2.80;2.70;;;9.40;99.90;;;;;;5031160;28;20315;-69
2022/03/31 08:47:41;;;;;;;3.38;3.20;;;9.40;99.90;;;;;;5032822;28;20232;-68
2022/03/31 08:50:10;;;;;;;3.10;3.00;;;9.50;99.90;;;;;;5031924;28;20559;-68
2022/03/31 08:52:37;;;;;;;3.70;3.50;;;9.70;99.90;;;;;;5039321;28;20232;-68
2022/03/31 08:55:05;;;;;;;3.45;3.30;;;9.40;99.90;;;;;;5035269;28;20303;-69
2022/03/31 08:57:44;;;;;;;3.63;3.43;;;9.40;99.90;;;;;;5031802;28;20185;-68
2022/03/31 09:00:13;;;;;;;3.60;3.40;;;9.30;99.90;;;;;;5031484;28;20208;-67
2022/03/31 09:02:52;;;;;;;3.47;3.27;;;9.30;99.90;;;;;;5031446;28;20209;-67
2022/03/31 09:05:20;;;;;;;3.30;3.20;;;9.30;99.90;;;;;;5041974;28;20243;-68
2022/03/31 09:07:55;;;;;;;3.30;3.17;;;9.40;99.90;;;;;;5033338;28;20247;-66
2022/03/31 09:10:30;;;;;;;3.63;3.42;;;9.40;99.90;;;;;;5031317;28;20721;-66
2022/03/31 09:12:58;;;;;;;3.50;3.30;;;9.40;99.90;;;;;;5031971;28;20247;-67
2022/03/31 09:15:25;;;;;;;3.55;3.35;;;9.40;99.90;;;;;;5033673;28;20292;-67
2022/03/31 09:17:57;;;;;;;4.13;3.93;;;9.50;99.90;;;;;;5034187;28;20248;-67
2022/03/31 09:20:36;;;;;;;3.80;3.60;;;9.40;99.90;;;;;;5031427;28;20307;-68
2022/03/31 09:23:03;;;;;;;3.40;3.30;;;9.40;99.90;;;;;;5031134;28;20754;-68
2022/03/31 09:25:32;;;;;;;4.07;3.87;;;9.40;99.90;;;;;;5030980;28;20315;-68
2022/03/31 09:28:00;;;;;;;3.83;3.63;;;9.40;99.90;;;;;;5031721;28;20212;-67
2022/03/31 09:30:27;;;;;;;3.80;3.60;;;9.50;99.90;;;;;;5031435;28;20208;-66
2022/03/31 09:32:54;;;;;;;4.10;3.90;;;9.50;99.90;;;;;;5031147;28;20236;-66
2022/03/31 09:35:23;;;;;;;3.93;3.73;;;9.40;99.90;;;;;;5030786;28;20312;-67
2022/03/31 09:37:55;;;;;;;3.85;3.65;;;9.40;99.90;;;;;;5031726;28;20232;-68
2022/03/31 09:40:22;;;;;;;3.83;3.63;;;9.40;99.90;;;;;;5030833;28;20624;-67
2022/03/31 09:42:59;;;;;;;3.70;3.50;;;9.40;99.90;;;;;;5024412;28;20207;-68
2022/03/31 09:45:38;;;;;;;3.93;3.73;;;9.40;99.90;;;;;;5026363;28;20315;-68
2022/03/31 09:48:08;;;;;;;3.17;3.03;;;9.40;99.90;;;;;;5021005;28;20205;-68
2022/03/31 09:50:36;;;;;;;3.60;3.40;;;9.40;99.90;;;;;;5018654;28;20743;-67
2022/03/31 09:53:05;;;;;;;3.20;3.10;;;9.50;99.90;;;;;;5015893;28;20664;-67
2022/03/31 09:55:33;;;;;;;3.60;3.40;;;9.50;99.90;;;;;;5026488;23;20233;-64
2022/03/31 09:58:01;;;;;;;3.20;3.03;;;9.40;99.90;;;;;;5003609;28;20201;-63
2022/03/31 10:00:29;;;;;;;3.13;3.03;;;9.50;99.90;;;;;;4988145;28;20264;-65
2022/03/31 10:02:59;;;;;;;3.20;3.00;;;9.30;99.90;;;;;;4997099;28;20209;-64
2022/03/31 10:05:27;;;;;;;3.40;3.20;;;9.30;99.90;;;;;;5002908;28;20229;-63
2022/03/31 10:07:55;;;;;;;3.57;3.40;;;9.40;99.90;;;;;;5013579;28;20295;-65
2022/03/31 10:10:24;;;;;;;3.55;3.38;;;9.40;99.90;;;;;;4998774;28;20213;-64
2022/03/31 10:12:56;;;;;;;3.60;3.40;;;9.30;99.90;;;;;;4993409;28;20238;-68
2022/03/31 10:15:30;;;;;;;3.73;3.53;;;9.40;99.90;;;;;;4994564;28;20301;-66
2022/03/31 10:17:57;;;;;;;3.80;3.60;;;9.40;99.90;;;;;;4995545;28;20208;-65
2022/03/31 10:20:24;;;;;;;3.97;3.77;;;9.40;99.90;;;;;;5001022;28;20269;-63
2022/03/31 10:25:45;;;;;;;3.85;3.65;;;9.20;99.90;;;;;;4997935;28;20249;-67
2022/03/31 10:28:13;;;;;;;4.32;4.13;;;9.20;99.90;;;;;;4997717;28;20201;-64
2022/03/31 10:30:43;;;;;;;4.60;4.40;;;9.30;99.90;;;;;;4991316;28;20765;-64
2022/03/31 10:33:11;;;;;;;5.27;4.97;;;9.30;99.90;;;;;;4991259;28;20234;-65
2022/03/31 10:35:40;;;;;;;5.40;5.10;;;9.20;99.90;;;;;;4994231;28;20629;-64
2022/03/31 10:38:15;;;;;;;5.70;5.40;;;9.20;99.90;;;;;;4998234;28;20214;-63
2022/03/31 10:40:45;;;;;;;5.50;5.20;;;9.30;99.90;;;;;;4998839;28;20240;-64
2022/03/31 10:43:24;;;;;;;5.87;5.50;;;9.20;99.90;;;;;;4997442;28;20213;-66
2022/03/31 10:45:54;;;;;;;5.03;4.73;;;9.20;99.90;;;;;;5001543;28;20308;-63
2022/03/31 10:48:23;;;;;;;5.13;4.83;;;9.30;99.90;;;;;;5011648;28;20216;-64
2022/03/31 10:51:05;;;;;;;5.60;5.30;;;9.40;99.90;;;;;;5000819;28;20213;-65
2022/03/31 10:53:33;;;;;;;5.50;5.20;;;9.40;99.90;;;;;;4993317;28;20236;-64
2022/03/31 10:56:03;;;;;;;6.40;6.10;;;9.30;99.90;;;;;;4993975;28;20317;-64
2022/03/31 10:58:31;;;;;;;4.90;4.67;;;9.20;99.90;;;;;;4994546;28;20712;-64
2022/03/31 11:01:01;;;;;;;5.50;5.20;;;9.10;99.90;;;;;;4994415;28;20250;-65
2022/03/31 11:03:28;;;;;;;6.30;5.90;;;9.10;99.90;;;;;;4994796;28;20799;-64
2022/03/31 11:05:59;;;;;;;6.17;5.77;;;9.10;99.90;;;;;;4994261;28;20316;-64
2022/03/31 11:08:26;;;;;;;5.88;5.57;;;9.10;99.90;;;;;;4995039;28;20241;-64
2022/03/31 11:10:55;;;;;;;5.80;5.50;;;9.00;99.90;;;;;;4993606;28;20282;-65
2022/03/31 11:13:33;;;;;;;5.60;5.30;;;9.00;99.90;;;;;;4993719;28;20216;-65
2022/03/31 11:16:01;;;;;;;5.60;5.30;;;9.10;99.90;;;;;;4995155;28;20309;-65
2022/03/31 11:18:29;;;;;;;5.00;4.70;;;9.10;99.90;;;;;;4995275;28;20206;-63
2022/03/31 11:20:57;;;;;;;5.40;5.10;;;9.10;99.90;;;;;;5009068;28;20209;-65
2022/03/31 11:23:25;;;;;;;4.80;4.57;;;9.10;99.90;;;;;;5013950;28;20680;-66
2022/03/31 11:25:52;;;;;;;4.85;4.55;;;9.10;99.90;;;;;;4992814;28;20225;-64
2022/03/31 11:28:19;;;;;;;4.97;4.67;;;9.10;99.90;;;;;;4995836;28;20206;-64
2022/03/31 11:30:48;;;;;;;4.80;4.50;;;9.00;99.90;;;;;;4991669;28;20206;-64
2022/03/31 11:33:15;;;;;;;4.00;3.80;;;9.00;99.90;;;;;;4993511;28;20581;-63
2022/03/31 11:35:43;;;;;;;4.40;4.20;;;9.10;99.90;;;;;;4995723;28;20224;-69
2022/03/31 11:38:14;;;;;;;4.60;4.40;;;9.30;99.90;;;;;;4998586;28;20238;-65
2022/03/31 11:40:44;;;;;;;4.83;4.63;;;9.30;99.90;;;;;;4994580;28;20202;-67
2022/03/31 11:43:14;;;;;;;4.27;4.07;;;9.40;99.90;;;;;;4994167;28;20213;-66
2022/03/31 11:45:44;;;;;;;4.20;4.00;;;9.50;99.90;;;;;;4991450;28;20249;-64
2022/03/31 11:48:14;;;;;;;3.93;3.73;;;9.50;99.90;;;;;;4995795;28;20209;-65
2022/03/31 11:50:50;;;;;;;4.38;4.07;;;9.60;99.90;;;;;;4992776;28;20245;-63
2022/03/31 11:53:18;;;;;;;4.10;3.90;;;9.70;99.90;;;;;;5001642;28;20240;-64
2022/03/31 11:55:55;;;;;;;4.00;3.80;;;9.60;99.90;;;;;;5003169;28;20292;-65
2022/03/31 11:58:22;;;;;;;4.20;4.00;;;9.70;99.90;;;;;;5008229;28;20205;-63
2022/03/31 12:00:50;;;;;;;4.47;4.27;;;9.60;99.90;;;;;;5008352;28;20240;-62
2022/03/31 12:03:19;;;;;;;4.17;3.97;;;9.70;99.90;;;;;;5008371;28;20208;-62
2022/03/31 12:05:56;;;;;;;4.90;4.60;;;9.60;99.90;;;;;;5001458;28;20272;-65
2022/03/31 12:08:24;;;;;;;4.33;4.13;;;9.70;99.90;;;;;;4994953;28;20719;-66
2022/03/31 12:10:52;;;;;;;4.57;4.33;;;9.70;99.90;;;;;;4989358;28;20220;-64
2022/03/31 12:13:19;;;;;;;4.07;3.87;;;9.70;99.90;;;;;;4996667;28;20292;-66
2022/03/31 12:15:47;;;;;;;4.00;3.80;;;9.70;99.90;;;;;;4996584;28;20280;-66
2022/03/31 12:18:16;;;;;;;3.73;3.53;;;9.70;99.90;;;;;;4998652;28;20296;-64
2022/03/31 12:20:46;;;;;;;2.90;2.80;;;9.80;99.90;;;;;;4994243;28;20206;-67
2022/03/31 12:23:19;;;;;;;3.60;3.40;;;10.00;99.90;;;;;;4994323;28;20205;-65
2022/03/31 12:25:46;;;;;;;3.55;3.35;;;10.10;99.90;;;;;;5004264;28;20229;-63
2022/03/31 12:28:13;;;;;;;3.70;3.50;;;10.00;99.90;;;;;;5007152;28;20233;-64
2022/03/31 12:30:47;;;;;;;3.70;3.50;;;9.90;99.90;;;;;;4998016;28;20288;-65
2022/03/31 12:33:24;;;;;;;3.50;3.30;;;9.80;99.90;;;;;;4993593;28;20210;-65
2022/03/31 12:35:55;;;;;;;3.63;3.43;;;9.90;99.90;;;;;;4988657;28;20224;-65
2022/03/31 12:38:33;;;;;;;3.60;3.40;;;10.00;99.90;;;;;;4992830;28;20226;-65
2022/03/31 12:41:00;;;;;;;3.37;3.17;;;10.00;99.90;;;;;;4991143;28;20220;-65
2022/03/31 12:43:28;;;;;;;3.33;3.13;;;10.00;99.90;;;;;;4987453;28;20297;-66
2022/03/31 12:45:55;;;;;;;3.30;3.20;;;10.10;99.90;;;;;;4990530;28;20253;-65
2022/03/31 12:48:22;;;;;;;3.30;3.10;;;10.30;99.90;;;;;;4989554;28;20206;-65
2022/03/31 12:50:49;;;;;;;3.30;3.10;;;10.40;99.90;;;;;;4992619;28;20587;-65
2022/03/31 12:53:17;;;;;;;3.33;3.13;;;10.40;99.90;;;;;;4992089;28;20298;-63
2022/03/31 12:55:44;;;;;;;3.00;2.90;;;10.30;99.90;;;;;;4990696;28;20226;-66
2022/03/31 12:58:11;;;;;;;3.27;3.10;;;10.30;99.90;;;;;;4991112;28;20248;-64